Time;durP1;ratioP1;P1;durP2;ratioP2;P2;SDS_P1;SDS_P2;PMS_P1;PMS_P2;Temp;Humidity;BMP_temperature;BMP_pressure;BME280_temperature;BME280_humidity;BME280_pressure;Samples;Min_cycle;Max_cycle;Signal;HPM_P1;HPM_P2
2023/07/21 00:01:25;;;;;;;5.95;3.40;;;14.50;99.90;;;;;;5054126;28;20051;-70
2023/07/21 00:03:51;;;;;;;4.13;3.30;;;14.40;99.90;;;;;;5059550;28;20037;-70
2023/07/21 00:06:19;;;;;;;4.40;3.17;;;14.40;99.90;;;;;;5035312;28;20449;-70
2023/07/21 00:08:45;;;;;;;5.03;3.10;;;14.40;99.90;;;;;;5037125;28;20044;-69
2023/07/21 00:11:11;;;;;;;5.18;2.80;;;14.30;99.90;;;;;;5058239;28;20045;-70
2023/07/21 00:13:36;;;;;;;4.63;3.35;;;14.20;99.90;;;;;;5052811;28;20050;-70
2023/07/21 00:16:04;;;;;;;5.55;3.95;;;14.20;99.90;;;;;;5055975;28;20512;-70
2023/07/21 00:18:30;;;;;;;6.03;4.40;;;14.20;99.90;;;;;;5059139;28;20044;-70
2023/07/21 00:20:57;;;;;;;6.97;4.47;;;14.20;99.90;;;;;;5041514;28;20126;-69
2023/07/21 00:23:24;;;;;;;8.25;4.90;;;14.20;99.90;;;;;;5056444;28;20043;-70
2023/07/21 00:25:52;;;;;;;8.10;5.13;;;14.20;99.90;;;;;;5056810;28;20036;-69
2023/07/21 00:28:20;;;;;;;6.03;4.70;;;14.20;99.90;;;;;;5055155;28;20358;-69
2023/07/21 00:30:47;;;;;;;6.45;4.00;;;14.20;99.90;;;;;;5059648;28;20098;-71
2023/07/21 00:33:16;;;;;;;11.35;4.80;;;14.10;99.90;;;;;;5053832;28;20048;-70
2023/07/21 00:35:42;;;;;;;8.35;6.35;;;14.10;99.90;;;;;;5054297;28;20043;-70
2023/07/21 00:38:08;;;;;;;7.47;5.82;;;14.10;99.90;;;;;;5039051;28;20037;-70
2023/07/21 00:40:37;;;;;;;8.25;6.05;;;14.10;99.90;;;;;;5060845;28;20072;-70
2023/07/21 00:43:03;;;;;;;8.27;6.47;;;14.10;99.90;;;;;;5055438;28;20041;-70
2023/07/21 00:45:34;;;;;;;8.73;6.30;;;14.10;99.90;;;;;;5039587;28;20045;-70
2023/07/21 00:48:03;;;;;;;7.72;6.03;;;14.10;99.90;;;;;;5027029;28;20518;-71
2023/07/21 00:50:29;;;;;;;8.50;5.93;;;14.20;99.90;;;;;;5036932;28;20110;-69
2023/07/21 00:52:57;;;;;;;7.38;6.03;;;14.20;99.90;;;;;;5022586;28;20496;-69
2023/07/21 00:55:24;;;;;;;8.60;6.70;;;14.20;99.90;;;;;;5053113;28;20728;-70
2023/07/21 00:57:50;;;;;;;10.25;6.22;;;14.20;99.90;;;;;;5038696;28;20550;-70
2023/07/21 01:00:16;;;;;;;8.15;6.30;;;14.20;99.90;;;;;;5037224;28;20040;-70
2023/07/21 01:02:41;;;;;;;9.88;6.55;;;14.20;99.90;;;;;;5054607;28;20382;-70
2023/07/21 01:05:08;;;;;;;6.72;5.55;;;14.20;99.90;;;;;;5036924;28;20470;-70
2023/07/21 01:07:36;;;;;;;8.35;6.32;;;14.10;99.90;;;;;;5053358;28;20044;-70
2023/07/21 01:10:03;;;;;;;9.15;6.72;;;14.10;99.90;;;;;;5036158;28;20037;-70
2023/07/21 01:12:30;;;;;;;11.40;6.88;;;14.10;99.90;;;;;;5038805;28;20063;-69
2023/07/21 01:14:56;;;;;;;7.25;6.35;;;14.00;99.90;;;;;;5055429;28;20059;-70
2023/07/21 01:17:23;;;;;;;7.72;6.35;;;14.00;99.90;;;;;;5053602;28;20033;-70
2023/07/21 01:19:50;;;;;;;8.80;6.53;;;14.00;99.90;;;;;;5055263;28;20056;-70
2023/07/21 01:22:28;;;;;;;9.75;6.50;;;14.00;99.90;;;;;;5052181;28;20098;-69
2023/07/21 01:24:54;;;;;;;7.80;6.50;;;13.90;99.90;;;;;;5038371;28;20426;-70
2023/07/21 01:27:24;;;;;;;8.55;5.97;;;13.90;99.90;;;;;;5036661;28;20101;-70
2023/07/21 01:29:51;;;;;;;9.15;6.20;;;13.90;99.90;;;;;;5057546;28;20139;-70
2023/07/21 01:32:25;;;;;;;11.23;6.65;;;13.90;99.90;;;;;;5055079;28;20288;-70
2023/07/21 01:34:52;;;;;;;6.70;5.90;;;13.80;99.90;;;;;;5057295;28;20467;-70
2023/07/21 01:37:20;;;;;;;9.15;5.97;;;13.80;99.90;;;;;;5050392;28;20480;-70
2023/07/21 01:39:46;;;;;;;8.30;6.28;;;13.80;99.90;;;;;;5058631;28;20083;-69
2023/07/21 01:42:12;;;;;;;8.68;6.43;;;13.80;99.90;;;;;;5056055;28;20038;-69
2023/07/21 01:44:38;;;;;;;9.02;6.80;;;13.80;99.90;;;;;;5060315;28;20453;-70
2023/07/21 01:47:05;;;;;;;9.48;6.07;;;13.80;99.90;;;;;;5059638;28;20086;-70
2023/07/21 01:49:31;;;;;;;8.02;6.10;;;13.80;99.90;;;;;;5059109;28;20048;-70
2023/07/21 01:51:57;;;;;;;9.43;6.13;;;13.80;99.90;;;;;;5039084;28;20081;-70
2023/07/21 01:54:51;;;;;;;8.60;6.45;;;13.70;99.90;;;;;;5040062;28;20045;-70
2023/07/21 01:57:40;;;;;;;9.88;6.20;;;13.70;99.90;;;;;;5058784;28;20048;-70
2023/07/21 02:00:10;;;;;;;8.52;6.18;;;13.70;99.90;;;;;;5039765;28;20037;-70
2023/07/21 02:02:38;;;;;;;8.25;6.53;;;13.60;99.90;;;;;;5021988;28;20157;-70
2023/07/21 02:05:05;;;;;;;8.93;5.95;;;13.60;99.90;;;;;;5035852;28;20045;-70
2023/07/21 02:07:31;;;;;;;11.55;6.55;;;13.60;99.90;;;;;;5057312;28;20125;-69
2023/07/21 02:09:58;;;;;;;8.02;6.28;;;13.60;99.90;;;;;;5037259;28;20036;-70
2023/07/21 02:12:23;;;;;;;10.13;6.22;;;13.60;99.90;;;;;;5040434;28;20045;-69
2023/07/21 02:14:49;;;;;;;7.53;5.28;;;13.50;99.90;;;;;;5059492;28;20423;-69
2023/07/21 02:17:15;;;;;;;10.05;6.28;;;13.50;99.90;;;;;;5056346;28;20049;-69
2023/07/21 02:19:40;;;;;;;12.15;6.68;;;13.50;99.90;;;;;;5054915;28;20067;-70
2023/07/21 02:22:06;;;;;;;11.25;6.25;;;13.40;99.90;;;;;;5059991;28;20044;-69
2023/07/21 02:24:32;;;;;;;10.38;6.45;;;13.50;99.90;;;;;;5055920;28;20040;-69
2023/07/21 02:26:59;;;;;;;7.07;5.97;;;13.50;99.90;;;;;;5038667;28;20033;-70
2023/07/21 02:29:25;;;;;;;9.95;6.65;;;13.50;99.90;;;;;;5037854;28;20037;-70
2023/07/21 02:31:50;;;;;;;10.25;6.32;;;13.50;99.90;;;;;;5023920;28;20051;-69
2023/07/21 02:34:16;;;;;;;8.23;6.45;;;13.50;99.90;;;;;;5040081;28;20036;-69
2023/07/21 02:36:42;;;;;;;11.35;6.65;;;13.50;99.90;;;;;;5060975;28;20097;-69
2023/07/21 02:39:07;;;;;;;10.27;7.07;;;13.50;99.90;;;;;;5057259;28;20087;-69
2023/07/21 02:41:33;;;;;;;8.73;6.68;;;13.50;99.90;;;;;;5056830;28;20052;-69
2023/07/21 02:43:59;;;;;;;8.93;6.32;;;13.50;99.90;;;;;;5055333;28;20560;-69
2023/07/21 02:46:25;;;;;;;10.13;6.90;;;13.50;99.90;;;;;;5057873;28;20062;-69
2023/07/21 02:48:51;;;;;;;9.15;6.22;;;13.50;99.90;;;;;;5038919;28;20052;-69
2023/07/21 02:51:19;;;;;;;12.13;6.65;;;13.60;99.90;;;;;;5057028;28;20048;-69
2023/07/21 02:53:45;;;;;;;10.35;6.50;;;13.50;99.90;;;;;;5055662;28;20567;-70
2023/07/21 02:56:11;;;;;;;10.15;6.70;;;13.50;99.90;;;;;;5058627;28;20098;-70
2023/07/21 02:58:36;;;;;;;9.32;6.57;;;13.50;99.90;;;;;;5058854;28;20044;-70
2023/07/21 03:01:03;;;;;;;8.80;7.13;;;13.50;99.90;;;;;;5037658;28;20048;-70
2023/07/21 03:03:32;;;;;;;10.40;6.60;;;13.50;99.90;;;;;;5040272;28;20065;-70
2023/07/21 03:05:58;;;;;;;7.90;6.00;;;13.50;99.90;;;;;;5037998;28;20049;-70
2023/07/21 03:08:29;;;;;;;10.80;7.03;;;13.50;99.90;;;;;;5041604;28;20060;-70
2023/07/21 03:10:55;;;;;;;9.65;6.25;;;13.50;99.90;;;;;;5037822;28;20045;-69
2023/07/21 03:13:25;;;;;;;10.57;6.18;;;13.40;99.90;;;;;;5036748;28;20057;-69
2023/07/21 03:15:54;;;;;;;8.40;6.10;;;13.40;99.90;;;;;;5020500;28;20099;-69
2023/07/21 03:18:19;;;;;;;8.13;6.15;;;13.40;99.90;;;;;;5005252;28;20061;-69
2023/07/21 03:20:45;;;;;;;8.40;6.22;;;13.40;99.90;;;;;;5038372;28;20072;-70
2023/07/21 03:23:11;;;;;;;8.70;6.50;;;13.40;99.90;;;;;;5017742;28;20075;-70
2023/07/21 03:25:46;;;;;;;6.93;5.93;;;13.30;99.90;;;;;;5038619;28;20310;-70
2023/07/21 03:28:11;;;;;;;8.45;6.40;;;13.30;99.90;;;;;;5040031;28;20052;-70
2023/07/21 03:30:37;;;;;;;10.18;6.35;;;13.20;99.90;;;;;;5017605;28;20124;-70
2023/07/21 03:33:03;;;;;;;9.27;6.65;;;13.20;99.90;;;;;;4999163;28;20631;-71
2023/07/21 03:35:29;;;;;;;9.90;6.32;;;13.20;99.90;;;;;;5038503;28;20041;-70
2023/07/21 03:37:57;;;;;;;8.48;5.78;;;13.20;99.90;;;;;;5038768;28;20349;-70
2023/07/21 03:40:22;;;;;;;9.05;6.72;;;13.10;99.90;;;;;;5016148;28;20303;-70
2023/07/21 03:42:48;;;;;;;9.30;6.68;;;13.10;99.90;;;;;;5020655;28;20041;-69
2023/07/21 03:45:13;;;;;;;10.45;6.40;;;13.10;99.90;;;;;;5037550;28;20044;-69
2023/07/21 03:47:39;;;;;;;9.05;6.07;;;13.10;99.90;;;;;;5022225;28;20417;-69
2023/07/21 03:50:07;;;;;;;8.98;6.43;;;13.10;99.90;;;;;;5020282;28;20045;-69
2023/07/21 03:52:33;;;;;;;9.23;6.75;;;13.10;99.90;;;;;;5036544;28;20528;-68
2023/07/21 03:54:59;;;;;;;8.88;6.22;;;13.20;99.90;;;;;;5017753;28;20524;-69
2023/07/21 03:57:25;;;;;;;8.93;6.28;;;13.20;99.90;;;;;;4988946;28;20523;-70
2023/07/21 03:59:52;;;;;;;11.45;6.60;;;13.20;99.90;;;;;;5041196;28;20064;-70
2023/07/21 04:02:18;;;;;;;7.80;6.43;;;13.20;99.90;;;;;;5037700;28;20066;-70
2023/07/21 04:04:48;;;;;;;10.45;7.50;;;13.30;99.90;;;;;;5054990;28;20048;-71
2023/07/21 04:07:14;;;;;;;11.27;7.07;;;13.30;99.90;;;;;;5055821;28;20071;-71
2023/07/21 04:09:40;;;;;;;8.63;6.68;;;13.40;99.90;;;;;;5040277;28;20396;-70
2023/07/21 04:12:06;;;;;;;8.75;6.70;;;13.40;99.90;;;;;;5051280;28;20033;-70
2023/07/21 04:14:32;;;;;;;8.95;6.80;;;13.40;99.90;;;;;;5039881;28;20037;-70
2023/07/21 04:16:58;;;;;;;9.13;6.10;;;13.40;99.90;;;;;;5038520;28;20100;-70
2023/07/21 04:19:25;;;;;;;8.70;6.00;;;13.40;99.90;;;;;;5038273;28;20452;-70
2023/07/21 04:21:54;;;;;;;9.50;5.68;;;13.50;99.90;;;;;;5037995;28;20154;-71
2023/07/21 04:24:20;;;;;;;8.52;6.05;;;13.50;99.90;;;;;;5055042;28;20041;-70
2023/07/21 04:26:46;;;;;;;11.05;6.32;;;13.60;99.90;;;;;;5053745;28;20044;-70
2023/07/21 04:29:12;;;;;;;8.20;5.75;;;13.60;99.90;;;;;;5058791;28;20033;-70
2023/07/21 04:31:37;;;;;;;9.32;5.82;;;13.60;99.90;;;;;;5056746;28;20426;-70
2023/07/21 04:34:03;;;;;;;10.52;6.32;;;13.60;99.90;;;;;;5051241;28;20056;-69
2023/07/21 04:36:29;;;;;;;8.70;6.20;;;13.70;99.90;;;;;;5053386;28;20567;-68
2023/07/21 04:38:54;;;;;;;8.32;5.75;;;13.70;99.90;;;;;;5037410;28;20040;-68
2023/07/21 04:41:21;;;;;;;7.80;5.95;;;13.70;99.90;;;;;;5055943;28;20128;-69
2023/07/21 04:43:46;;;;;;;10.02;5.95;;;13.80;99.90;;;;;;5056214;28;20125;-70
2023/07/21 04:46:13;;;;;;;9.30;6.32;;;13.80;99.90;;;;;;5041084;28;20050;-70
2023/07/21 04:48:39;;;;;;;10.40;5.72;;;13.80;99.90;;;;;;5021888;28;20102;-70
2023/07/21 04:51:04;;;;;;;11.18;5.72;;;13.90;99.90;;;;;;5036377;28;20052;-70
2023/07/21 04:53:30;;;;;;;12.50;6.72;;;13.90;99.90;;;;;;5041638;28;20087;-70
2023/07/21 04:55:57;;;;;;;9.20;5.63;;;13.90;99.90;;;;;;5057900;28;20044;-69
2023/07/21 04:58:24;;;;;;;10.52;6.32;;;13.90;99.90;;;;;;5054689;28;20067;-70
2023/07/21 05:00:50;;;;;;;10.43;6.30;;;14.00;99.90;;;;;;5019378;28;20555;-69
2023/07/21 05:03:15;;;;;;;10.32;6.60;;;14.00;99.90;;;;;;5034408;28;20047;-69
2023/07/21 05:05:41;;;;;;;9.68;6.30;;;14.00;99.90;;;;;;5022523;28;20064;-69
2023/07/21 05:08:06;;;;;;;10.98;5.85;;;14.00;99.90;;;;;;5056095;28;20040;-70
2023/07/21 05:10:32;;;;;;;12.18;6.35;;;14.00;99.90;;;;;;5056429;28;21011;-69
2023/07/21 05:12:59;;;;;;;11.93;6.75;;;14.00;99.90;;;;;;5056024;28;20037;-69
2023/07/21 05:15:26;;;;;;;12.30;6.63;;;14.00;99.90;;;;;;5063032;28;20040;-69
2023/07/21 05:17:51;;;;;;;12.55;6.35;;;14.10;99.90;;;;;;5059216;28;20041;-69
2023/07/21 05:20:19;;;;;;;8.60;6.32;;;14.10;99.90;;;;;;5058473;28;20392;-69
2023/07/21 05:22:46;;;;;;;12.70;6.13;;;14.20;99.90;;;;;;5044022;28;20147;-69
2023/07/21 05:25:16;;;;;;;11.48;6.10;;;14.30;99.90;;;;;;5056094;28;20392;-69
2023/07/21 05:27:42;;;;;;;12.45;6.07;;;14.40;99.90;;;;;;5062593;28;20041;-70
2023/07/21 05:30:11;;;;;;;12.48;6.47;;;14.60;99.90;;;;;;5057029;28;20502;-70
2023/07/21 05:32:39;;;;;;;9.90;6.22;;;14.70;99.90;;;;;;5055473;28;20056;-70
2023/07/21 05:35:08;;;;;;;11.15;6.60;;;14.90;99.90;;;;;;5042723;28;20059;-70
2023/07/21 05:37:34;;;;;;;10.55;5.50;;;15.10;99.90;;;;;;5062150;28;20044;-70
2023/07/21 05:40:00;;;;;;;7.38;5.43;;;15.20;99.90;;;;;;5061030;28;20415;-68
2023/07/21 05:42:25;;;;;;;8.15;5.78;;;15.50;99.90;;;;;;5059304;28;20041;-69
2023/07/21 05:44:51;;;;;;;8.93;5.75;;;15.60;99.90;;;;;;5060958;28;20036;-69
2023/07/21 05:47:19;;;;;;;7.70;5.45;;;15.80;99.90;;;;;;5060416;28;20117;-70
2023/07/21 05:49:45;;;;;;;9.88;5.75;;;16.00;99.90;;;;;;5057670;28;20048;-69
2023/07/21 05:52:10;;;;;;;9.63;6.07;;;16.10;99.90;;;;;;5056973;28;20044;-69
2023/07/21 05:54:37;;;;;;;9.57;5.07;;;16.30;99.90;;;;;;5057406;28;20052;-69
2023/07/21 05:57:03;;;;;;;9.60;5.60;;;16.50;99.90;;;;;;5036631;28;20033;-70
2023/07/21 05:59:32;;;;;;;9.65;4.75;;;16.70;99.90;;;;;;5055514;28;20052;-70
2023/07/21 06:01:59;;;;;;;9.43;4.72;;;17.00;99.90;;;;;;5057881;28;20064;-70
2023/07/21 06:04:25;;;;;;;7.32;4.20;;;17.20;99.90;;;;;;5039803;28;20051;-70
2023/07/21 06:06:50;;;;;;;6.25;3.90;;;17.50;99.90;;;;;;5054717;28;20416;-70
2023/07/21 06:09:17;;;;;;;5.43;3.35;;;17.70;99.90;;;;;;5059978;28;20044;-70
2023/07/21 06:11:43;;;;;;;6.35;4.07;;;17.80;99.90;;;;;;5054194;28;20028;-71
2023/07/21 06:14:08;;;;;;;5.53;3.50;;;17.80;99.90;;;;;;5034266;28;20041;-68
2023/07/21 06:16:34;;;;;;;5.70;3.63;;;17.90;99.90;;;;;;5062017;28;20056;-70
2023/07/21 06:19:00;;;;;;;7.88;3.63;;;18.10;99.90;;;;;;5037205;28;20388;-69
2023/07/21 06:21:26;;;;;;;4.78;3.20;;;18.30;99.90;;;;;;5059670;28;20041;-69
2023/07/21 06:23:53;;;;;;;7.95;3.58;;;18.40;99.90;;;;;;5057589;28;20043;-69
2023/07/21 06:26:19;;;;;;;7.25;3.78;;;18.30;99.90;;;;;;5054090;28;20242;-69
2023/07/21 06:28:45;;;;;;;5.93;3.65;;;18.20;99.90;;;;;;5037288;28;20036;-71
2023/07/21 06:31:11;;;;;;;7.13;3.50;;;18.10;99.90;;;;;;5051260;28;20044;-71
2023/07/21 06:33:38;;;;;;;5.07;3.05;;;18.10;99.90;;;;;;5032159;28;21787;-72
2023/07/21 06:36:03;;;;;;;5.72;3.47;;;18.10;99.90;;;;;;5042665;28;20447;-72
2023/07/21 06:38:29;;;;;;;6.05;3.45;;;18.10;99.90;;;;;;5053704;28;20045;-72
2023/07/21 06:40:55;;;;;;;5.63;3.47;;;18.10;99.90;;;;;;5054936;28;20052;-73
2023/07/21 06:43:21;;;;;;;6.75;3.90;;;18.20;99.90;;;;;;5042363;28;22322;-72
2023/07/21 06:45:46;;;;;;;6.20;4.30;;;18.20;99.90;;;;;;5057253;28;20033;-72
2023/07/21 06:48:14;;;;;;;6.43;3.40;;;18.20;99.90;;;;;;5057851;28;20115;-74
2023/07/21 06:50:40;;;;;;;7.85;3.80;;;18.20;99.90;;;;;;5057785;28;20123;-73
2023/07/21 06:53:06;;;;;;;8.48;4.10;;;18.30;99.90;;;;;;5056845;28;20669;-73
2023/07/21 06:55:36;;;;;;;5.43;3.20;;;18.40;99.90;;;;;;5039039;28;21780;-74
2023/07/21 06:58:02;;;;;;;4.72;3.58;;;18.50;99.90;;;;;;5025965;28;20530;-69
2023/07/21 07:00:28;;;;;;;8.10;3.92;;;18.70;99.90;;;;;;5034548;28;20064;-70
2023/07/21 07:02:56;;;;;;;3.50;2.45;;;18.80;99.90;;;;;;5052213;28;20127;-72
2023/07/21 07:05:23;;;;;;;3.85;2.45;;;18.80;99.90;;;;;;5056980;28;20056;-72
2023/07/21 07:07:53;;;;;;;5.65;3.10;;;18.90;99.90;;;;;;5053864;28;20055;-70
2023/07/21 07:10:19;;;;;;;4.20;2.65;;;18.90;99.90;;;;;;5055001;28;20045;-71
2023/07/21 07:12:46;;;;;;;6.82;3.10;;;18.90;99.90;;;;;;5036475;28;20049;-71
2023/07/21 07:15:12;;;;;;;5.40;3.33;;;18.80;99.90;;;;;;5035994;28;20512;-71
2023/07/21 07:17:38;;;;;;;5.65;3.00;;;18.80;99.90;;;;;;5057537;28;20389;-71
2023/07/21 07:20:04;;;;;;;4.18;3.25;;;18.80;99.90;;;;;;5054840;28;20121;-71
2023/07/21 07:22:30;;;;;;;5.60;3.17;;;18.90;99.90;;;;;;5057553;28;20553;-70
2023/07/21 07:24:56;;;;;;;7.35;4.13;;;19.20;99.90;;;;;;5051638;28;20041;-71
2023/07/21 07:27:21;;;;;;;5.10;3.28;;;19.50;99.90;;;;;;5040197;28;20136;-72
2023/07/21 07:29:47;;;;;;;8.32;4.22;;;19.70;99.90;;;;;;5054465;28;20488;-71
2023/07/21 07:32:13;;;;;;;5.38;3.63;;;19.70;99.90;;;;;;5033566;28;20060;-71
2023/07/21 07:34:41;;;;;;;4.57;2.53;;;19.60;99.90;;;;;;5055574;28;20059;-69
2023/07/21 07:37:06;;;;;;;5.43;2.50;;;19.50;99.90;;;;;;5052510;28;20515;-70
2023/07/21 07:39:32;;;;;;;4.43;2.92;;;19.40;99.90;;;;;;5055583;28;20081;-71
2023/07/21 07:41:58;;;;;;;4.47;3.10;;;19.30;99.90;;;;;;5049999;28;20221;-73
2023/07/21 07:44:23;;;;;;;6.10;2.80;;;19.20;99.90;;;;;;5047759;28;20053;-71
2023/07/21 07:46:49;;;;;;;4.68;2.88;;;19.10;99.90;;;;;;5055093;28;20095;-70
2023/07/21 07:49:16;;;;;;;7.28;3.38;;;19.00;99.90;;;;;;5052641;28;20071;-74
2023/07/21 07:51:42;;;;;;;5.85;3.75;;;19.00;99.90;;;;;;5033708;28;20056;-75
2023/07/21 07:54:08;;;;;;;4.75;3.30;;;19.00;99.90;;;;;;5052067;28;20220;-73
2023/07/21 07:56:33;;;;;;;6.00;3.53;;;18.90;99.90;;;;;;5054409;28;20051;-73
2023/07/21 07:58:59;;;;;;;4.97;3.47;;;18.90;99.90;;;;;;5053754;28;20070;-74
2023/07/21 08:01:26;;;;;;;4.82;3.60;;;18.80;99.90;;;;;;5053745;28;20420;-75
2023/07/21 08:03:53;;;;;;;5.85;4.18;;;18.80;99.90;;;;;;5019775;28;20040;-74
2023/07/21 08:06:19;;;;;;;6.60;3.75;;;18.80;99.90;;;;;;5041166;28;20052;-74
2023/07/21 08:08:46;;;;;;;5.82;3.92;;;18.80;99.90;;;;;;5034810;28;20120;-74
2023/07/21 08:11:11;;;;;;;5.57;4.13;;;18.80;99.90;;;;;;5018328;28;20048;-72
2023/07/21 08:13:39;;;;;;;5.43;4.07;;;18.80;99.90;;;;;;5054300;28;20044;-74
2023/07/21 08:16:13;;;;;;;8.45;4.90;;;18.90;99.90;;;;;;5047662;28;20040;-74
2023/07/21 08:18:39;;;;;;;7.88;5.25;;;19.00;99.90;;;;;;5031727;28;20056;-75
2023/07/21 08:21:18;;;;;;;5.82;4.60;;;19.20;99.90;;;;;;5021845;28;20178;-73
2023/07/21 08:23:44;;;;;;;5.70;4.72;;;19.50;99.90;;;;;;5037612;28;20048;-74
2023/07/21 08:26:10;;;;;;;9.07;5.50;;;19.70;99.90;;;;;;5053506;28;20056;-72
2023/07/21 08:28:35;;;;;;;6.65;6.00;;;19.80;99.90;;;;;;5051200;28;20040;-74
2023/07/21 08:31:01;;;;;;;7.85;5.20;;;19.80;99.90;;;;;;5052938;28;20056;-74
2023/07/21 08:33:27;;;;;;;6.00;4.72;;;19.80;99.90;;;;;;5014208;28;20516;-73
2023/07/21 08:35:56;;;;;;;6.60;5.30;;;19.80;99.90;;;;;;5049845;28;20044;-70
2023/07/21 08:38:22;;;;;;;7.05;5.63;;;19.70;99.90;;;;;;5033121;28;20127;-73
2023/07/21 08:40:50;;;;;;;7.75;5.22;;;19.70;99.90;;;;;;5054720;28;20040;-73
2023/07/21 08:43:16;;;;;;;6.90;5.15;;;19.60;99.90;;;;;;5050097;28;20376;-72
2023/07/21 08:45:43;;;;;;;7.28;4.65;;;19.60;99.90;;;;;;5051972;28;20457;-72
2023/07/21 08:48:09;;;;;;;5.68;4.93;;;19.70;99.90;;;;;;5055306;28;21439;-72
2023/07/21 08:50:40;;;;;;;7.40;5.20;;;19.60;99.90;;;;;;5059561;28;20036;-72
2023/07/21 08:53:06;;;;;;;7.65;5.82;;;19.80;99.90;;;;;;5054984;28;20044;-71
2023/07/21 08:55:33;;;;;;;8.25;5.70;;;19.80;99.90;;;;;;5055438;28;20087;-72
2023/07/21 08:57:59;;;;;;;6.22;5.45;;;19.80;99.90;;;;;;5044307;28;20378;-71
2023/07/21 09:00:26;;;;;;;7.43;5.03;;;19.70;99.90;;;;;;5039006;28;20044;-71
2023/07/21 09:03:03;;;;;;;5.30;4.22;;;19.80;99.90;;;;;;5033093;28;20132;-72
2023/07/21 09:05:29;;;;;;;7.28;4.40;;;19.80;99.90;;;;;;5043037;28;20053;-70
2023/07/21 09:07:57;;;;;;;6.10;4.20;;;19.70;99.90;;;;;;5041730;28;20037;-72
2023/07/21 09:10:35;;;;;;;5.03;3.30;;;19.70;99.90;;;;;;5043433;28;20087;-71
2023/07/21 09:13:01;;;;;;;6.53;3.40;;;19.50;99.90;;;;;;5046035;28;20045;-71
2023/07/21 09:15:27;;;;;;;5.68;3.47;;;19.40;99.90;;;;;;5048830;28;20041;-71
2023/07/21 09:17:53;;;;;;;7.35;3.38;;;19.40;99.90;;;;;;5045677;28;20459;-71
2023/07/21 09:20:19;;;;;;;5.97;3.60;;;19.40;99.90;;;;;;5048424;28;20079;-70
2023/07/21 09:22:49;;;;;;;5.40;3.45;;;19.50;99.90;;;;;;5045688;28;20476;-71
2023/07/21 09:25:22;;;;;;;5.90;4.05;;;19.50;99.90;;;;;;5038125;28;20064;-70
2023/07/21 09:27:55;;;;;;;5.35;4.30;;;19.50;99.90;;;;;;5036648;28;20041;-74
2023/07/21 09:30:22;;;;;;;5.05;3.42;;;19.60;99.90;;;;;;5019929;28;20192;-72
2023/07/21 09:32:51;;;;;;;3.88;2.83;;;19.60;99.90;;;;;;5023844;28;20469;-72
2023/07/21 09:35:16;;;;;;;3.22;2.05;;;19.70;99.90;;;;;;5030518;28;20040;-72
2023/07/21 09:37:42;;;;;;;2.60;1.95;;;19.70;99.90;;;;;;5037070;28;21585;-74
2023/07/21 09:40:11;;;;;;;3.08;1.90;;;19.70;99.90;;;;;;5032780;28;20081;-73
2023/07/21 09:42:38;;;;;;;3.42;2.28;;;19.80;99.90;;;;;;5035720;28;20456;-74
2023/07/21 09:45:05;;;;;;;3.63;2.10;;;19.90;99.90;;;;;;5037178;28;20132;-71
2023/07/21 09:47:31;;;;;;;4.45;1.88;;;20.00;99.90;;;;;;5042203;28;20053;-74
2023/07/21 09:49:58;;;;;;;3.55;1.50;;;20.20;99.90;;;;;;5042086;28;20111;-73
2023/07/21 09:52:26;;;;;;;3.58;2.15;;;20.40;99.90;;;;;;5042153;28;20378;-75
2023/07/21 09:55:09;;;;;;;3.33;1.60;;;20.60;99.90;;;;;;5038190;28;20070;-73
2023/07/21 09:57:40;;;;;;;3.45;1.70;;;20.80;99.90;;;;;;5040189;28;20514;-74
2023/07/21 10:00:13;;;;;;;3.90;1.50;;;20.90;99.90;;;;;;5037595;28;20164;-74
2023/07/21 10:02:44;;;;;;;2.80;1.60;;;21.20;99.90;;;;;;5032742;28;20091;-73
2023/07/21 10:05:13;;;;;;;2.75;1.65;;;21.40;99.90;;;;;;5038519;28;20405;-73
2023/07/21 10:07:50;;;;;;;2.15;1.33;;;21.40;99.90;;;;;;5034973;28;20213;-73
2023/07/21 10:10:18;;;;;;;8.85;2.08;;;21.50;99.90;;;;;;5034286;28;20140;-72
2023/07/21 10:12:49;;;;;;;3.50;1.65;;;21.50;99.90;;;;;;5036636;28;20068;-73
2023/07/21 10:15:35;;;;;;;3.95;2.05;;;21.40;99.90;;;;;;5036190;28;20041;-72
2023/07/21 10:18:06;;;;;;;3.55;2.50;;;21.40;99.90;;;;;;5040434;28;20428;-72
2023/07/21 10:20:53;;;;;;;3.67;2.42;;;21.40;99.90;;;;;;5030392;28;20052;-72
2023/07/21 10:23:38;;;;;;;4.30;2.55;;;21.40;99.90;;;;;;5036790;28;20119;-69
2023/07/21 10:26:08;;;;;;;5.10;3.00;;;21.70;99.90;;;;;;5037758;28;20156;-72
2023/07/21 10:28:44;;;;;;;4.82;2.50;;;21.70;99.90;;;;;;5039435;28;20052;-70
2023/07/21 10:31:23;;;;;;;3.35;2.35;;;21.60;99.90;;;;;;5036998;28;20048;-77
2023/07/21 10:34:10;;;;;;;4.32;2.08;;;21.30;99.90;;;;;;5037188;28;20056;-73
2023/07/21 10:36:52;;;;;;;3.72;2.60;;;21.10;99.90;;;;;;5039183;28;20170;-72
2023/07/21 10:39:27;;;;;;;5.17;3.20;;;20.80;99.90;;;;;;5039273;28;20041;-71
2023/07/21 10:41:58;;;;;;;4.82;3.10;;;20.60;99.90;;;;;;5026120;28;20391;-71
2023/07/21 10:44:31;;;;;;;7.03;3.80;;;20.40;99.90;;;;;;5035631;28;20053;-71
2023/07/21 10:46:56;;;;;;;6.63;3.22;;;20.20;99.90;;;;;;5034928;28;20516;-71
2023/07/21 10:49:22;;;;;;;5.90;3.50;;;20.10;99.90;;;;;;5037433;28;20040;-73
2023/07/21 10:51:50;;;;;;;6.45;3.60;;;20.00;99.90;;;;;;5037332;28;20160;-70
2023/07/21 10:54:16;;;;;;;5.78;4.15;;;20.00;99.90;;;;;;5034694;28;20037;-71
2023/07/21 10:56:44;;;;;;;6.28;4.15;;;20.00;99.90;;;;;;5038047;28;20440;-70
2023/07/21 10:59:11;;;;;;;5.97;4.30;;;20.00;99.90;;;;;;5038844;28;20488;-72
2023/07/21 11:01:41;;;;;;;7.03;4.13;;;19.90;99.90;;;;;;5039400;28;20045;-71
2023/07/21 11:04:07;;;;;;;6.50;3.90;;;19.90;99.90;;;;;;5059475;28;20144;-72
2023/07/21 11:06:39;;;;;;;6.30;3.50;;;20.00;99.90;;;;;;5059813;28;20487;-71
2023/07/21 11:09:11;;;;;;;5.30;3.50;;;20.10;99.90;;;;;;5045241;28;20060;-71
2023/07/21 11:11:41;;;;;;;;;;;20.30;99.90;;;;;;5059141;28;20044;-71
2023/07/21 11:14:14;;;;;;;6.45;4.10;;;20.40;99.90;;;;;;5056505;28;19920;-73
2023/07/21 11:16:53;;;;;;;4.90;3.30;;;20.50;99.90;;;;;;5043697;28;20048;-70
2023/07/21 11:19:20;;;;;;;5.50;3.95;;;20.40;99.90;;;;;;5042738;28;20047;-72
2023/07/21 11:21:47;;;;;;;4.97;3.70;;;20.10;99.90;;;;;;5047981;28;20543;-71
2023/07/21 11:24:32;;;;;;;5.25;4.07;;;20.00;99.90;;;;;;5061830;28;20040;-70
2023/07/21 11:27:12;;;;;;;6.25;2.92;;;19.80;99.90;;;;;;5056398;28;20496;-74
2023/07/21 11:29:45;;;;;;;4.28;2.90;;;19.70;99.90;;;;;;5020276;28;20037;-72
2023/07/21 11:32:20;;;;;;;4.68;2.90;;;19.50;99.90;;;;;;5046423;28;20136;-71
2023/07/21 11:34:56;;;;;;;9.57;3.35;;;19.40;99.90;;;;;;5058175;28;20365;-71
2023/07/21 11:37:22;;;;;;;;;;;19.30;99.90;;;;;;5054754;28;20048;-71
2023/07/21 11:39:57;;;;;;;10.57;4.20;;;19.10;99.90;;;;;;5037459;28;19916;-70
2023/07/21 11:42:23;;;;;;;10.32;4.97;;;18.90;99.90;;;;;;5054370;28;20052;-73
2023/07/21 11:44:49;;;;;;;15.15;5.20;;;18.70;99.90;;;;;;5055201;28;20404;-76
2023/07/21 11:47:16;;;;;;;15.13;5.70;;;18.60;99.90;;;;;;5056363;28;20044;-74
2023/07/21 11:49:46;;;;;;;20.35;6.00;;;18.40;99.90;;;;;;5053145;28;20040;-74
2023/07/21 11:52:24;;;;;;;18.17;7.53;;;18.20;99.90;;;;;;5060140;28;20052;-75
2023/07/21 11:54:50;;;;;;;11.38;6.25;;;17.90;99.90;;;;;;5033312;28;20043;-74
2023/07/21 11:57:15;;;;;;;8.98;5.40;;;17.60;99.90;;;;;;5028168;28;20036;-70
2023/07/21 11:59:41;;;;;;;8.60;4.28;;;17.30;99.90;;;;;;5035625;28;20042;-71
2023/07/21 12:02:08;;;;;;;9.45;3.58;;;17.10;99.90;;;;;;5032418;28;20405;-71
2023/07/21 12:04:35;;;;;;;6.70;3.53;;;17.00;99.90;;;;;;5032209;28;20416;-72
2023/07/21 12:07:01;;;;;;;5.55;3.55;;;16.90;99.90;;;;;;5039636;28;20081;-72
2023/07/21 12:09:28;;;;;;;5.80;3.60;;;16.80;99.90;;;;;;5031106;28;20183;-73
2023/07/21 12:11:55;;;;;;;5.85;3.50;;;16.90;99.90;;;;;;5027435;28;20041;-73
2023/07/21 12:14:21;;;;;;;6.07;3.10;;;16.90;99.90;;;;;;5012987;28;20511;-73
2023/07/21 12:16:46;;;;;;;5.55;2.88;;;17.00;99.90;;;;;;5015304;28;20045;-73
2023/07/21 12:19:13;;;;;;;4.88;3.00;;;17.10;99.90;;;;;;5018669;28;20150;-72
2023/07/21 12:21:40;;;;;;;4.70;2.05;;;17.20;99.90;;;;;;5032254;28;20520;-73
2023/07/21 12:24:06;;;;;;;5.88;3.08;;;17.20;99.90;;;;;;5026792;28;20091;-73
2023/07/21 12:26:32;;;;;;;4.88;2.80;;;17.20;99.90;;;;;;5035472;28;20048;-73
2023/07/21 12:28:59;;;;;;;5.35;3.17;;;17.20;99.90;;;;;;5031457;28;20049;-72
2023/07/21 12:31:25;;;;;;;5.65;3.15;;;17.10;99.90;;;;;;5036594;28;20049;-72
2023/07/21 12:33:51;;;;;;;3.70;2.30;;;17.10;99.90;;;;;;5031550;28;20096;-72
2023/07/21 12:36:20;;;;;;;3.58;2.05;;;16.90;99.90;;;;;;5032354;28;20549;-72
2023/07/21 12:38:46;;;;;;;3.22;2.08;;;16.80;99.90;;;;;;5035463;28;20568;-74
2023/07/21 12:41:13;;;;;;;4.60;2.45;;;16.70;99.90;;;;;;5034030;28;20152;-75
2023/07/21 12:43:39;;;;;;;3.05;2.25;;;16.60;99.90;;;;;;5033216;28;20501;-76
2023/07/21 12:46:05;;;;;;;4.40;2.45;;;16.50;99.90;;;;;;5037506;28;20045;-75
2023/07/21 12:48:32;;;;;;;4.72;2.40;;;16.40;99.90;;;;;;5040391;28;20112;-75